Time;durP1;ratioP1;P1;durP2;ratioP2;P2;SDS_P1;SDS_P2;PMS_P1;PMS_P2;Temp;Humidity;BMP_temperature;BMP_pressure;BME280_temperature;BME280_humidity;BME280_pressure;Samples;Min_cycle;Max_cycle;Signal;HPM_P1;HPM_P2
2022/04/29 00:00:34;;;;;;;7.43;6.20;;;;;;;5.65;100.00;97499.75;5054237;28;20509;-78
2022/04/29 00:03:02;;;;;;;8.23;7.00;;;;;;;5.95;100.00;97521.75;5052662;28;20470;-78
2022/04/29 00:05:29;;;;;;;8.87;6.83;;;;;;;5.41;100.00;97435.78;5035745;28;20540;-78
2022/04/29 00:07:56;;;;;;;6.50;5.90;;;;;;;5.03;100.00;97401.22;5039252;28;20451;-78
2022/04/29 00:10:22;;;;;;;6.60;5.90;;;;;;;5.55;100.00;97463.03;5024243;28;20644;-77
2022/04/29 00:12:50;;;;;;;8.47;7.67;;;;;;;5.64;100.00;97464.09;5036248;28;20465;-78
2022/04/29 00:15:18;;;;;;;13.60;6.33;;;;;;;5.89;100.00;97508.63;5037088;28;20543;-77
2022/04/29 00:17:45;;;;;;;7.07;6.37;;;;;;;5.50;100.00;97489.28;5036455;28;21020;-78
2022/04/29 00:20:13;;;;;;;6.87;6.27;;;;;;;5.70;100.00;97512.84;5036729;28;20475;-78
2022/04/29 00:22:41;;;;;;;6.63;6.03;;;;;;;5.72;100.00;97507.34;5039676;28;20471;-77
2022/04/29 00:25:08;;;;;;;7.70;6.93;;;;;;;5.42;100.00;97497.69;5043076;28;20453;-77
2022/04/29 00:27:36;;;;;;;10.40;7.57;;;;;;;5.43;100.00;97465.94;5019621;28;20538;-78
2022/04/29 00:30:04;;;;;;;6.43;5.83;;;;;;;5.30;100.00;97469.09;5036202;28;20487;-77
2022/04/29 00:32:31;;;;;;;6.93;6.33;;;;;;;5.54;100.00;97498.97;5029195;28;20595;-77
2022/04/29 00:34:58;;;;;;;7.07;6.47;;;;;;;5.54;100.00;97498.19;5035497;28;20535;-77
2022/04/29 00:37:24;;;;;;;11.03;6.83;;;;;;;5.41;100.00;97454.94;5031376;28;20469;-77
2022/04/29 00:39:51;;;;;;;7.50;6.80;;;;;;;5.44;100.00;97458.84;5052657;28;20478;-77
2022/04/29 00:42:24;;;;;;;6.47;5.83;;;;;;;5.58;100.00;97504.47;5035048;28;20435;-78
2022/04/29 00:44:51;;;;;;;8.83;7.13;;;;;;;5.25;100.00;97482.22;5035466;28;20929;-77
2022/04/29 00:47:20;;;;;;;7.27;6.23;;;;;;;5.17;100.00;97501.09;5031629;28;20493;-78
2022/04/29 00:49:48;;;;;;;10.70;6.30;;;;;;;4.51;100.00;97438.91;5035105;28;20987;-78
2022/04/29 00:52:18;;;;;;;10.77;7.00;;;;;;;4.89;100.00;97469.09;5035360;28;20837;-77
2022/04/29 00:54:57;;;;;;;6.40;5.80;;;;;;;5.21;100.00;97483.81;5034914;28;20484;-77
2022/04/29 00:57:45;;;;;;;7.23;6.40;;;;;;;4.73;100.00;97400.19;5034570;28;20557;-78
2022/04/29 01:00:18;;;;;;;6.07;5.47;;;;;;;5.50;100.00;97490.06;5039519;28;20472;-78
2022/04/29 01:02:48;;;;;;;7.43;5.73;;;;;;;5.57;100.00;97480.09;5035515;28;20486;-78
2022/04/29 01:05:19;;;;;;;12.30;6.30;;;;;;;5.64;100.00;97474.56;5035287;28;20428;-77
2022/04/29 01:07:47;;;;;;;9.40;5.43;;;;;;;5.49;100.00;97472.78;5035447;28;20443;-78
2022/04/29 01:10:15;;;;;;;6.13;5.50;;;;;;;4.79;100.00;97442.09;5040512;28;20455;-78
2022/04/29 01:12:43;;;;;;;6.67;5.53;;;;;;;5.23;100.00;97469.38;5035484;28;20520;-78
2022/04/29 01:15:17;;;;;;;11.50;5.80;;;;;;;5.32;100.00;97467.00;5053845;28;20439;-78
2022/04/29 01:17:46;;;;;;;6.87;6.27;;;;;;;5.21;100.00;97437.41;5039853;28;20478;-78
2022/04/29 01:20:15;;;;;;;6.77;6.17;;;;;;;5.34;100.00;97472.75;5043145;28;20517;-77
2022/04/29 01:22:43;;;;;;;9.30;6.37;;;;;;;5.13;100.00;97440.53;5034468;28;20440;-77
2022/04/29 01:25:11;;;;;;;6.80;6.30;;;;;;;5.37;100.00;97474.09;5041869;28;20961;-78
2022/04/29 01:27:42;;;;;;;7.20;6.57;;;;;;;4.97;100.00;97415.41;5034496;28;20442;-78
2022/04/29 01:30:13;;;;;;;6.80;6.10;;;;;;;5.20;100.00;97461.22;5021014;28;20461;-77
2022/04/29 01:32:41;;;;;;;8.20;6.30;;;;;;;4.81;100.00;97419.03;5034357;28;20455;-77
2022/04/29 01:35:11;;;;;;;6.40;5.80;;;;;;;4.80;100.00;97420.09;5039533;28;21261;-77
2022/04/29 01:37:38;;;;;;;8.30;6.70;;;;;;;4.93;100.00;97437.91;5050492;28;20439;-77
2022/04/29 01:40:06;;;;;;;7.40;6.70;;;;;;;5.05;100.00;97441.06;5034046;28;20455;-77
2022/04/29 01:42:34;;;;;;;7.33;5.43;;;;;;;4.88;100.00;97409.09;5034144;28;20942;-77
2022/04/29 01:45:00;;;;;;;7.23;6.43;;;;;;;5.01;100.00;97432.16;5037611;28;20439;-77
2022/04/29 01:47:31;;;;;;;6.90;6.20;;;;;;;5.04;100.00;97418.53;5034065;28;20444;-77
2022/04/29 01:50:18;;;;;;;7.10;6.20;;;;;;;4.93;100.00;97419.56;5031265;28;20459;-77
2022/04/29 01:52:44;;;;;;;6.50;5.90;;;;;;;5.22;100.00;97462.56;5034017;28;20467;-77
2022/04/29 01:55:11;;;;;;;7.93;5.83;;;;;;;4.90;100.00;97459.41;5033163;28;20451;-77
2022/04/29 01:57:37;;;;;;;13.43;6.60;;;;;;;4.81;100.00;97460.97;5040766;28;20443;-78
2022/04/29 02:00:06;;;;;;;10.83;6.77;;;;;;;4.67;100.00;97403.06;5020783;28;20871;-77
2022/04/29 02:02:45;;;;;;;12.90;6.67;;;;;;;4.69;100.00;97419.31;5033668;28;20922;-77
2022/04/29 02:05:14;;;;;;;10.60;5.67;;;;;;;4.49;100.00;97390.47;5033694;28;20451;-77
2022/04/29 02:07:43;;;;;;;10.73;6.40;;;;;;;4.60;100.00;97413.00;5037454;28;20525;-78
2022/04/29 02:10:13;;;;;;;12.10;5.93;;;;;;;4.56;100.00;97448.63;5033920;28;20464;-77
2022/04/29 02:12:40;;;;;;;7.90;6.27;;;;;;;4.58;100.00;97444.69;5036633;28;20906;-77
2022/04/29 02:15:07;;;;;;;14.10;6.83;;;;;;;4.54;100.00;97409.63;5050407;28;20512;-77
2022/04/29 02:17:38;;;;;;;7.63;6.17;;;;;;;4.29;100.00;97349.38;5035988;28;21200;-77
2022/04/29 02:20:06;;;;;;;9.70;6.60;;;;;;;4.78;100.00;97435.28;5033736;28;20474;-78
2022/04/29 02:22:34;;;;;;;8.20;5.97;;;;;;;4.47;100.00;97380.25;5034114;28;20855;-77
2022/04/29 02:25:01;;;;;;;9.93;5.77;;;;;;;4.26;100.00;97402.22;5034289;28;20442;-77
2022/04/29 02:27:28;;;;;;;8.23;6.00;;;;;;;3.99;100.00;97418.88;5037108;28;20426;-77
2022/04/29 02:29:54;;;;;;;10.10;5.50;;;;;;;3.67;100.00;97353.66;5041381;28;20559;-77
2022/04/29 02:32:21;;;;;;;6.67;6.07;;;;;;;4.26;100.00;97400.38;5034441;28;20464;-78
2022/04/29 02:34:48;;;;;;;8.00;7.10;;;;;;;4.23;100.00;97371.31;5042294;28;20431;-77
2022/04/29 02:37:15;;;;;;;10.83;7.60;;;;;;;4.28;100.00;97385.22;5034729;28;20526;-77
2022/04/29 02:39:45;;;;;;;6.57;5.83;;;;;;;4.55;100.00;97421.66;5034532;28;20465;-78
2022/04/29 02:42:12;;;;;;;10.27;6.10;;;;;;;4.47;100.00;97403.03;5034736;28;20537;-77
2022/04/29 02:44:39;;;;;;;7.60;6.30;;;;;;;4.22;100.00;97370.53;5034885;28;20492;-77
2022/04/29 02:47:07;;;;;;;6.50;5.87;;;;;;;4.46;100.00;97397.03;5021716;28;20443;-77
2022/04/29 02:49:39;;;;;;;7.27;5.30;;;;;;;4.14;100.00;97390.16;5024340;28;20471;-77
2022/04/29 02:52:07;;;;;;;9.63;6.90;;;;;;;4.42;100.00;97424.78;5017928;28;20446;-77
2022/04/29 02:54:34;;;;;;;6.93;4.80;;;;;;;4.33;100.00;97397.53;5033520;28;20439;-77
2022/04/29 02:57:02;;;;;;;6.47;5.87;;;;;;;4.44;100.00;97431.31;5033053;28;20478;-77
2022/04/29 02:59:47;;;;;;;6.47;5.87;;;;;;;4.37;100.00;97395.94;5049433;28;20470;-77
2022/04/29 03:02:13;;;;;;;9.07;5.87;;;;;;;3.91;100.00;97361.84;5033187;28;20648;-77
2022/04/29 03:04:40;;;;;;;6.80;5.87;;;;;;;4.32;100.00;97430.78;5016711;28;20492;-77
2022/04/29 03:07:07;;;;;;;6.80;6.10;;;;;;;4.07;100.00;97409.75;5033124;28;21096;-77
2022/04/29 03:09:49;;;;;;;6.53;6.03;;;;;;;3.86;100.00;97391.38;5032578;28;20487;-77
2022/04/29 03:12:19;;;;;;;8.20;5.77;;;;;;;4.04;100.00;97405.84;5017208;28;20435;-77
2022/04/29 03:14:52;;;;;;;12.47;5.70;;;;;;;4.12;100.00;97412.38;5032943;28;20539;-77
2022/04/29 03:20:04;;;;;;;7.47;6.87;;;;;;;4.00;100.00;97406.59;5033988;28;21032;-77
2022/04/29 03:22:31;;;;;;;6.50;5.90;;;;;;;3.98;100.00;97393.75;5036872;28;20523;-77
2022/04/29 03:24:58;;;;;;;7.20;6.47;;;;;;;3.92;100.00;97375.69;5036640;28;20539;-78
2022/04/29 03:27:24;;;;;;;8.80;6.00;;;;;;;3.89;100.00;97386.69;5039736;28;20454;-77
2022/04/29 03:29:51;;;;;;;6.60;6.00;;;;;;;3.75;100.00;97420.38;5029590;28;20455;-77
2022/04/29 03:32:18;;;;;;;14.47;6.67;;;;;;;3.32;100.00;97359.50;5036455;28;20468;-78
2022/04/29 03:34:58;;;;;;;10.87;5.83;;;;;;;3.53;100.00;97373.47;5043447;28;20444;-77
2022/04/29 03:37:25;;;;;;;7.30;6.03;;;;;;;3.53;100.00;97365.63;5036426;28;20849;-77
2022/04/29 03:39:55;;;;;;;6.03;5.43;;;;;;;3.73;100.00;97398.91;5019919;28;20455;-77
2022/04/29 03:42:22;;;;;;;7.70;6.03;;;;;;;3.78;100.00;97412.00;5032251;28;20844;-77
2022/04/29 03:44:50;;;;;;;5.97;5.47;;;;;;;3.78;100.00;97397.09;5036451;28;20443;-77
2022/04/29 03:47:19;;;;;;;9.47;6.17;;;;;;;3.82;100.00;97402.59;5050026;28;20440;-77
2022/04/29 03:50:08;;;;;;;5.50;5.07;;;;;;;3.85;100.00;97415.16;5054815;28;20488;-77
2022/04/29 03:52:50;;;;;;;18.37;7.23;;;;;;;3.86;100.00;97420.13;5036240;28;20493;-77
2022/04/29 03:55:22;;;;;;;9.60;6.77;;;;;;;3.64;100.00;97426.59;5036727;28;20566;-77
2022/04/29 03:57:50;;;;;;;9.33;5.30;;;;;;;3.71;100.00;97416.66;5036589;28;20472;-77
2022/04/29 04:00:17;;;;;;;11.70;6.60;;;;;;;3.41;100.00;97376.28;5036460;28;20481;-77
2022/04/29 04:02:44;;;;;;;9.07;7.63;;;;;;;3.47;100.00;97369.22;5036235;28;20486;-77
2022/04/29 04:05:12;;;;;;;7.17;6.57;;;;;;;3.52;100.00;97429.41;5035988;28;20454;-77
2022/04/29 04:07:39;;;;;;;12.27;10.53;;;;;;;3.43;100.00;97394.31;5035932;28;20441;-77
2022/04/29 04:10:23;;;;;;;11.13;6.90;;;;;;;3.27;100.00;97406.50;5038525;28;20941;-76
2022/04/29 04:12:51;;;;;;;6.10;5.60;;;;;;;3.41;100.00;97422.53;5039076;28;20455;-76
2022/04/29 04:15:44;;;;;;;15.40;11.40;;;;;;;3.42;100.00;97424.09;5044843;28;20788;-77
2022/04/29 04:18:11;;;;;;;11.33;8.83;;;;;;;3.41;100.00;97402.41;5035932;28;20437;-76
2022/04/29 04:20:38;;;;;;;9.87;8.80;;;;;;;3.31;100.00;97391.88;5019784;28;20468;-77
2022/04/29 04:23:05;;;;;;;10.70;8.73;;;;;;;3.10;100.00;97364.09;5041869;28;20530;-76
2022/04/29 04:25:32;;;;;;;10.73;8.50;;;;;;;3.15;100.00;97372.72;5053003;28;20431;-77
2022/04/29 04:28:00;;;;;;;10.83;8.17;;;;;;;3.22;100.00;97380.34;5052858;28;20440;-77
2022/04/29 04:30:44;;;;;;;7.43;6.73;;;;;;;3.42;100.00;97411.81;5040287;28;20478;-77
2022/04/29 04:33:13;;;;;;;7.27;6.60;;;;;;;3.35;100.00;97418.34;5046532;28;20471;-77
2022/04/29 04:35:40;;;;;;;9.83;7.47;;;;;;;3.23;100.00;97374.09;5040029;28;20494;-76
2022/04/29 04:38:06;;;;;;;6.67;6.17;;;;;;;3.35;100.00;97403.44;5040039;28;20954;-77
2022/04/29 04:41:03;;;;;;;11.83;6.30;;;;;;;3.47;100.00;97411.88;5034204;28;20448;-77
2022/04/29 04:43:30;;;;;;;6.63;6.13;;;;;;;3.44;100.00;97443.72;5049779;28;20952;-76
2022/04/29 04:46:00;;;;;;;7.70;6.90;;;;;;;3.40;100.00;97413.13;5036461;28;21026;-76
2022/04/29 04:48:27;;;;;;;7.50;6.70;;;;;;;3.38;100.00;97412.59;5037495;28;20489;-76
2022/04/29 04:51:12;;;;;;;6.03;5.47;;;;;;;3.30;100.00;97402.59;5040027;28;20446;-76
2022/04/29 04:53:44;;;;;;;7.13;6.60;;;;;;;3.47;100.00;97440.63;5037741;28;20617;-75
2022/04/29 04:56:11;;;;;;;6.50;5.90;;;;;;;3.51;100.00;97409.53;5055814;28;20470;-76
2022/04/29 04:58:38;;;;;;;9.93;7.47;;;;;;;3.92;100.00;97444.50;5036957;28;20448;-75
2022/04/29 05:01:04;;;;;;;7.97;7.17;;;;;;;3.91;100.00;97414.16;5041480;28;20459;-74
2022/04/29 05:03:41;;;;;;;7.83;7.20;;;;;;;4.04;100.00;97432.00;5054177;28;20431;-74
2022/04/29 05:06:43;;;;;;;8.17;7.47;;;;;;;4.10;100.00;97427.56;4991123;28;20440;-76
2022/04/29 05:09:10;;;;;;;8.20;7.50;;;;;;;4.09;100.00;97423.38;5009789;28;20435;-76
2022/04/29 05:11:37;;;;;;;10.73;8.07;;;;;;;4.13;100.00;97437.50;5035252;28;20451;-76
2022/04/29 05:14:41;;;;;;;10.43;9.50;;;;;;;3.89;100.00;97405.00;5052316;28;20834;-76
2022/04/29 05:17:09;;;;;;;10.83;9.73;;;;;;;3.93;100.00;97417.31;5034527;28;20822;-77
2022/04/29 05:19:54;;;;;;;11.90;10.30;;;;;;;4.15;100.00;97430.22;5052289;28;20507;-76
2022/04/29 05:22:24;;;;;;;11.80;10.60;;;;;;;3.82;100.00;97408.63;5034137;28;20439;-75
2022/04/29 05:24:51;;;;;;;14.23;11.70;;;;;;;4.19;100.00;97439.13;5034156;28;20435;-75
2022/04/29 05:27:27;;;;;;;17.70;13.97;;;;;;;4.53;100.00;97446.50;5037960;28;20430;-75
2022/04/29 05:30:12;;;;;;;13.93;11.33;;;;;;;4.54;100.00;97407.00;5052330;28;20508;-75
2022/04/29 05:33:07;;;;;;;12.53;10.27;;;;;;;4.70;100.00;97415.66;5038447;28;20474;-75
2022/04/29 05:35:53;;;;;;;10.97;9.87;;;;;;;4.87;100.00;97458.09;5037200;28;20976;-75
2022/04/29 05:44:19;;;;;;;17.07;12.20;;;;;;;5.09;100.00;97463.09;5052662;28;20794;-75
2022/04/29 05:46:48;;;;;;;19.13;12.93;;;;;;;4.98;100.00;97454.44;5047743;28;20529;-75
2022/04/29 05:49:15;;;;;;;18.57;12.40;;;;;;;5.56;100.00;97447.03;5052990;28;20496;-75
2022/04/29 05:51:45;;;;;;;17.43;12.90;;;;;;;5.97;100.00;97454.03;5033725;28;20508;-75
2022/04/29 05:54:13;;;;;;;20.70;13.43;;;;;;;6.13;100.00;97451.06;5017422;28;20466;-75
2022/04/29 05:56:40;;;;;;;18.50;12.70;;;;;;;6.51;100.00;97467.97;5034293;28;20784;-76
2022/04/29 05:59:11;;;;;;;14.40;11.80;;;;;;;6.52;100.00;97474.78;5050719;28;20412;-75
2022/04/29 06:01:57;;;;;;;13.20;11.90;;;;;;;6.51;100.00;97473.22;5036681;28;20800;-74
2022/04/29 06:04:32;;;;;;;14.10;9.60;;;;;;;6.38;100.00;97475.66;5034412;28;20447;-74
2022/04/29 06:06:59;;;;;;;16.70;11.37;;;;;;;6.57;100.00;97471.38;5034663;28;20547;-75
2022/04/29 06:09:26;;;;;;;12.80;11.50;;;;;;;6.35;100.00;97436.81;5052118;28;20478;-75
2022/04/29 06:11:55;;;;;;;14.97;11.90;;;;;;;6.42;100.00;97442.56;5033748;28;20578;-75
2022/04/29 06:14:31;;;;;;;13.37;12.17;;;;;;;6.14;100.00;97413.28;5034037;28;20459;-75
2022/04/29 06:17:18;;;;;;;13.47;12.27;;;;;;;6.69;100.00;97456.06;5036404;28;20440;-76
2022/04/29 06:19:50;;;;;;;13.43;11.30;;;;;;;6.82;100.00;97459.91;5051904;28;20532;-75
2022/04/29 06:22:45;;;;;;;13.80;12.40;;;;;;;6.93;100.00;97450.88;5040645;28;20522;-75
2022/04/29 06:25:20;;;;;;;12.80;11.40;;;;;;;7.33;100.00;97464.75;5033728;28;20526;-75
2022/04/29 06:27:47;;;;;;;12.57;11.30;;;;;;;7.43;100.00;97450.72;5050152;28;20451;-75
2022/04/29 06:30:14;;;;;;;13.63;12.20;;;;;;;7.99;100.00;97472.78;5020249;28;20480;-75
2022/04/29 06:33:13;;;;;;;14.93;12.30;;;;;;;8.21;100.00;97466.22;5029184;28;20991;-75
2022/04/29 06:35:47;;;;;;;14.37;12.73;;;;;;;8.16;100.00;97432.81;5033655;28;20444;-75
2022/04/29 06:38:14;;;;;;;13.70;12.40;;;;;;;8.56;100.00;97442.06;5039707;28;20866;-75
2022/04/29 06:40:55;;;;;;;18.93;12.67;;;;;;;9.04;100.00;97481.44;5051495;28;21064;-75
2022/04/29 06:43:30;;;;;;;17.67;12.90;;;;;;;8.81;100.00;97471.75;5033738;28;20883;-76
2022/04/29 06:46:17;;;;;;;14.27;13.07;;;;;;;8.91;100.00;97474.25;5048733;28;20495;-76
2022/04/29 06:49:03;;;;;;;14.93;13.63;;;;;;;9.02;100.00;97464.34;5040377;28;20819;-76
2022/04/29 06:51:48;;;;;;;12.17;11.13;;;;;;;9.10;100.00;97471.59;5051580;28;20427;-76
2022/04/29 06:54:25;;;;;;;13.50;12.17;;;;;;;9.30;100.00;97415.84;5034060;28;20844;-75
2022/04/29 06:56:59;;;;;;;13.00;11.27;;;;;;;10.04;100.00;97472.06;5037193;28;20542;-75
2022/04/29 06:59:26;;;;;;;13.00;11.20;;;;;;;10.18;100.00;97458.84;5055143;28;20555;-75
2022/04/29 07:01:53;;;;;;;13.10;12.00;;;;;;;10.02;100.00;97461.00;5037064;28;20455;-75
2022/04/29 07:04:28;;;;;;;12.93;11.83;;;;;;;10.37;100.00;97490.47;5037096;28;20939;-75
2022/04/29 07:06:56;;;;;;;12.30;11.23;;;;;;;10.95;100.00;97490.56;5036980;28;20451;-75
2022/04/29 07:09:24;;;;;;;18.37;13.40;;;;;;;10.86;100.00;97457.16;5036966;28;20513;-75
2022/04/29 07:12:31;;;;;;;14.23;12.60;;;;;;;11.20;100.00;97467.97;5055368;28;20513;-76
2022/04/29 07:14:59;;;;;;;12.63;11.50;;;;;;;11.73;100.00;97487.59;5037182;28;20521;-76
2022/04/29 07:17:27;;;;;;;11.93;10.47;;;;;;;11.62;100.00;97468.56;5036868;28;20436;-75
2022/04/29 07:19:58;;;;;;;13.17;11.63;;;;;;;11.89;100.00;97478.22;5053424;28;20481;-75
2022/04/29 07:22:28;;;;;;;12.53;11.27;;;;;;;12.11;100.00;97469.41;5036693;28;20826;-75
2022/04/29 07:24:56;;;;;;;13.23;11.83;;;;;;;12.24;100.00;97495.00;5036635;28;20425;-75
2022/04/29 07:27:23;;;;;;;12.87;11.67;;;;;;;12.74;100.00;97494.66;5039179;28;20452;-75
2022/04/29 07:29:51;;;;;;;11.60;10.47;;;;;;;12.68;100.00;97448.91;5036717;28;20882;-76
2022/04/29 07:32:26;;;;;;;14.00;11.40;;;;;;;12.63;100.00;97456.25;5036997;28;20475;-76
2022/04/29 07:43:17;;;;;;;11.57;10.43;;;;;;;12.73;100.00;97462.03;5053232;28;20443;-76
2022/04/29 07:45:44;;;;;;;12.73;11.43;;;;;;;12.67;96.64;97467.78;5037524;28;20529;-76
2022/04/29 07:48:44;;;;;;;16.87;12.30;;;;;;;12.83;95.76;97474.22;5043498;28;20448;-76
2022/04/29 07:51:10;;;;;;;13.67;12.40;;;;;;;12.87;95.78;97443.28;5058726;28;20444;-76
2022/04/29 07:53:37;;;;;;;12.97;11.50;;;;;;;13.03;92.86;97427.66;5054210;28;20825;-76
2022/04/29 07:56:05;;;;;;;16.70;12.27;;;;;;;13.46;91.72;97432.91;5036594;28;20881;-76
2022/04/29 07:58:34;;;;;;;18.83;14.63;;;;;;;13.84;91.46;97469.38;5052710;28;20520;-76
2022/04/29 08:01:03;;;;;;;15.70;13.03;;;;;;;13.92;87.48;97446.50;5035964;28;20472;-75
2022/04/29 08:03:34;;;;;;;13.70;12.00;;;;;;;14.32;90.09;97465.56;5036544;28;20968;-76
2022/04/29 08:06:03;;;;;;;14.13;11.70;;;;;;;14.23;87.12;97459.50;5035443;28;20444;-76
2022/04/29 08:08:29;;;;;;;13.77;12.47;;;;;;;14.04;86.45;97443.97;5020150;28;20490;-76
2022/04/29 08:10:56;;;;;;;11.87;10.57;;;;;;;14.16;88.08;97441.41;5052888;28;20465;-75
2022/04/29 08:13:24;;;;;;;12.27;10.97;;;;;;;14.42;84.27;97457.19;5036300;28;20433;-75
2022/04/29 08:15:50;;;;;;;12.70;10.80;;;;;;;14.28;79.96;97454.75;5053526;28;20428;-75
2022/04/29 08:18:32;;;;;;;12.90;11.70;;;;;;;14.05;82.95;97459.59;5035896;28;20820;-75
2022/04/29 08:20:59;;;;;;;13.13;11.93;;;;;;;14.28;83.01;97461.97;5035649;28;20461;-75
2022/04/29 08:23:26;;;;;;;11.53;10.47;;;;;;;14.54;81.35;97462.63;5036093;28;20452;-75
2022/04/29 08:25:53;;;;;;;10.87;9.97;;;;;;;14.64;77.85;97445.47;5037112;28;20528;-75
2022/04/29 08:28:20;;;;;;;11.47;10.43;;;;;;;15.05;73.79;97469.44;5007415;28;20442;-75
2022/04/29 08:30:47;;;;;;;10.90;9.80;;;;;;;15.05;74.92;97458.78;5015308;28;20528;-75
2022/04/29 08:33:21;;;;;;;10.97;9.90;;;;;;;15.08;73.76;97468.00;5031021;28;20512;-75
2022/04/29 08:36:00;;;;;;;11.87;10.67;;;;;;;15.24;70.66;97446.88;5023919;28;20499;-76
2022/04/29 08:38:27;;;;;;;10.20;9.20;;;;;;;15.15;71.19;97443.50;5033284;28;20441;-75
2022/04/29 08:41:00;;;;;;;11.20;10.20;;;;;;;15.40;71.03;97463.78;5024371;28;20553;-76
2022/04/29 08:43:32;;;;;;;9.07;8.23;;;;;;;15.54;66.71;97466.94;5035005;28;20452;-76
2022/04/29 08:46:02;;;;;;;11.27;8.80;;;;;;;15.23;69.33;97435.44;5035062;28;20945;-75
2022/04/29 08:49:07;;;;;;;9.57;8.73;;;;;;;15.53;67.79;97454.72;5002412;28;20535;-75
2022/04/29 08:51:34;;;;;;;9.53;8.73;;;;;;;15.63;69.70;97457.00;4991238;28;20423;-75
2022/04/29 08:54:02;;;;;;;9.80;8.80;;;;;;;15.72;71.08;97459.53;5012277;28;20458;-76
2022/04/29 08:59:18;;;;;;;9.20;8.40;;;;;;;15.18;67.11;97435.63;5037920;28;20976;-75
2022/04/29 09:01:45;;;;;;;9.97;9.03;;;;;;;15.26;65.60;97421.44;5036504;28;20805;-75
2022/04/29 09:04:12;;;;;;;9.37;8.47;;;;;;;15.17;65.86;97419.97;5018810;28;20442;-75
2022/04/29 09:06:49;;;;;;;9.77;8.87;;;;;;;15.36;65.13;97445.03;5028182;28;20438;-76
2022/04/29 09:09:21;;;;;;;9.00;8.17;;;;;;;15.58;65.53;97422.50;5030016;28;20425;-75
2022/04/29 09:11:48;;;;;;;9.23;8.53;;;;;;;15.75;63.99;97442.09;5034703;28;20441;-76
2022/04/29 09:14:25;;;;;;;10.07;9.20;;;;;;;15.55;63.30;97388.50;5052331;28;20461;-75
2022/04/29 09:16:54;;;;;;;10.03;9.03;;;;;;;16.19;62.48;97446.56;5034203;28;20436;-75
2022/04/29 09:19:32;;;;;;;11.83;10.50;;;;;;;15.85;61.49;97425.66;5033770;28;20476;-75
2022/04/29 09:22:09;;;;;;;10.70;8.20;;;;;;;16.16;62.30;97441.91;5034375;28;20469;-76
2022/04/29 09:25:03;;;;;;;11.23;8.03;;;;;;;16.48;61.09;97442.09;5050098;28;20533;-75
2022/04/29 09:28:02;;;;;;;9.20;8.30;;;;;;;16.76;58.75;97442.94;5035970;28;20455;-75
2022/04/29 09:30:48;;;;;;;8.40;7.67;;;;;;;16.53;59.08;97391.88;5051233;28;20914;-76
2022/04/29 09:33:35;;;;;;;9.63;8.60;;;;;;;16.32;58.07;97407.31;5037495;28;20428;-75
2022/04/29 09:36:26;;;;;;;9.93;9.03;;;;;;;16.50;58.55;97411.25;5047654;28;20444;-75
2022/04/29 09:41:58;;;;;;;9.93;8.90;;;;;;;16.17;58.33;97392.00;5051799;28;20463;-75
2022/04/29 09:44:33;;;;;;;10.83;8.27;;;;;;;16.48;55.41;97416.16;5034027;28;20434;-75
2022/04/29 09:47:11;;;;;;;8.10;6.60;;;;;;;16.43;54.61;97427.09;5017314;28;20531;-76
2022/04/29 09:49:37;;;;;;;8.60;6.50;;;;;;;16.31;54.30;97397.75;5051913;28;20456;-76
2022/04/29 09:52:05;;;;;;;9.87;7.57;;;;;;;16.41;54.72;97417.84;5033863;28;20960;-76
2022/04/29 09:54:39;;;;;;;9.00;8.10;;;;;;;16.32;52.39;97422.53;5051497;28;20491;-77
2022/04/29 09:57:12;;;;;;;8.03;6.67;;;;;;;16.52;52.95;97416.25;5034142;28;20517;-76
2022/04/29 09:59:44;;;;;;;6.60;6.00;;;;;;;16.92;53.46;97412.81;5050734;28;20814;-76
2022/04/29 10:02:21;;;;;;;5.73;5.33;;;;;;;17.02;48.79;97405.09;5034438;28;20448;-76
2022/04/29 10:04:52;;;;;;;7.00;6.13;;;;;;;17.03;48.44;97412.00;5033941;28;20911;-76
2022/04/29 10:07:24;;;;;;;7.30;6.70;;;;;;;16.36;48.23;97313.97;5034309;28;20456;-76
2022/04/29 10:09:56;;;;;;;9.20;7.40;;;;;;;16.57;49.01;97401.91;5049699;28;20551;-76
2022/04/29 10:12:25;;;;;;;7.47;6.87;;;;;;;16.76;49.90;97378.06;5050654;28;20505;-76
2022/04/29 10:15:06;;;;;;;7.57;6.87;;;;;;;17.12;51.07;97369.09;5034585;28;20465;-76
2022/04/29 10:23:28;;;;;;;8.40;7.70;;;;;;;17.07;51.79;97396.06;5034388;28;20501;-77
2022/04/29 10:25:55;;;;;;;9.20;8.30;;;;;;;17.37;52.92;97365.16;5052175;28;20421;-76
2022/04/29 10:28:23;;;;;;;8.63;7.77;;;;;;;17.40;51.38;97377.06;5034269;28;20425;-77
2022/04/29 10:31:09;;;;;;;7.73;7.03;;;;;;;17.12;51.13;97361.06;5038902;28;20465;-76
2022/04/29 10:33:37;;;;;;;8.47;7.77;;;;;;;17.21;50.69;97350.97;5038316;28;20921;-77
2022/04/29 10:36:08;;;;;;;8.93;8.13;;;;;;;18.05;51.02;97382.03;5037385;28;20465;-76
2022/04/29 10:38:40;;;;;;;8.10;7.40;;;;;;;18.27;52.17;97394.75;5037375;28;20474;-76
2022/04/29 10:41:20;;;;;;;7.73;7.03;;;;;;;18.22;48.66;97392.38;5037810;28;20444;-76
2022/04/29 10:43:50;;;;;;;7.20;6.60;;;;;;;17.68;47.73;97385.00;5037757;28;20447;-76
2022/04/29 10:46:20;;;;;;;6.80;6.30;;;;;;;17.58;46.45;97364.88;5053960;28;21083;-77
2022/04/29 10:49:27;;;;;;;7.60;7.00;;;;;;;18.04;49.27;97378.59;5027555;28;20465;-76
2022/04/29 10:52:25;;;;;;;7.60;6.93;;;;;;;16.81;45.66;97333.16;5039469;28;20425;-76
2022/04/29 10:55:06;;;;;;;11.17;7.27;;;;;;;17.67;46.63;97354.00;5041082;28;20473;-75
2022/04/29 10:57:56;;;;;;;8.03;7.40;;;;;;;17.85;47.88;97363.25;5056380;28;20921;-75
2022/04/29 11:00:28;;;;;;;7.90;6.00;;;;;;;17.93;47.25;97366.88;5048215;28;20537;-74
2022/04/29 11:03:37;;;;;;;8.60;7.80;;;;;;;17.27;48.24;97365.66;5044720;28;21160;-76
2022/04/29 11:06:09;;;;;;;7.53;6.87;;;;;;;16.92;48.07;97320.09;5038879;28;20793;-76
2022/04/29 11:08:37;;;;;;;7.43;6.73;;;;;;;17.69;46.35;97352.56;5041456;28;20960;-75
2022/04/29 11:11:05;;;;;;;8.47;7.30;;;;;;;17.94;46.07;97352.38;5029314;28;20461;-75
2022/04/29 11:14:02;;;;;;;7.27;6.63;;;;;;;18.38;47.10;97341.44;5039868;28;20440;-75
2022/04/29 11:16:56;;;;;;;9.77;7.27;;;;;;;18.59;46.50;97348.00;5045851;28;20424;-76
2022/04/29 11:19:45;;;;;;;7.47;6.77;;;;;;;18.67;46.41;97343.56;5036652;28;20489;-75
2022/04/29 11:25:04;;;;;;;9.83;6.87;;;;;;;18.67;45.63;97329.41;5036593;28;20440;-74
2022/04/29 11:27:40;;;;;;;6.70;6.10;;;;;;;18.77;46.74;97326.16;5039278;28;20421;-75
2022/04/29 11:30:14;;;;;;;8.10;6.73;;;;;;;18.92;44.44;97324.50;5036794;28;20562;-75
2022/04/29 11:32:52;;;;;;;8.00;7.30;;;;;;;18.53;45.72;97311.13;5022673;28;20445;-75
2022/04/29 11:35:23;;;;;;;7.67;6.80;;;;;;;18.42;45.41;97324.28;5061196;28;20472;-75
2022/04/29 11:37:50;;;;;;;8.30;7.60;;;;;;;17.95;45.07;97301.16;5038200;28;20420;-75
2022/04/29 11:40:16;;;;;;;14.47;6.70;;;;;;;18.58;45.75;97332.28;5039192;28;20489;-76
2022/04/29 11:42:50;;;;;;;7.20;6.70;;;;;;;18.12;45.06;97297.31;5036633;28;20433;-75
2022/04/29 11:45:21;;;;;;;9.00;8.30;;;;;;;18.90;44.79;97330.22;5038936;28;20810;-75
2022/04/29 11:48:02;;;;;;;11.13;6.97;;;;;;;18.96;44.82;97311.94;5036965;28;20821;-76
2022/04/29 11:50:35;;;;;;;6.70;5.80;;;;;;;18.74;44.26;97319.59;5026223;28;20582;-76
2022/04/29 11:53:07;;;;;;;7.50;6.90;;;;;;;18.74;43.30;97314.25;5054773;28;20417;-75
2022/04/29 11:55:33;;;;;;;6.33;5.73;;;;;;;18.65;45.72;97304.88;5036634;28;20511;-75
2022/04/29 11:58:01;;;;;;;6.90;6.17;;;;;;;18.76;43.25;97289.78;5054578;28;20425;-76
2022/04/29 12:00:31;;;;;;;8.93;6.33;;;;;;;18.59;43.04;97293.66;5036576;28;20454;-75
2022/04/29 12:02:59;;;;;;;6.37;5.90;;;;;;;18.56;43.17;97315.75;5036341;28;20859;-75
2022/04/29 12:05:30;;;;;;;5.63;5.13;;;;;;;18.10;42.95;97280.81;5036090;28;20430;-75
2022/04/29 12:08:00;;;;;;;6.50;5.87;;;;;;;17.78;43.57;97290.09;5037142;28;21043;-75
2022/04/29 12:10:47;;;;;;;6.30;5.80;;;;;;;17.64;45.68;97277.91;5036086;28;20564;-75
2022/04/29 12:13:14;;;;;;;6.77;5.70;;;;;;;17.52;46.52;97285.28;5036909;28;20540;-75
2022/04/29 12:15:44;;;;;;;7.77;7.07;;;;;;;17.24;45.00;97264.00;5021583;28;20570;-75
2022/04/29 12:18:14;;;;;;;6.20;5.67;;;;;;;17.07;44.28;97281.91;5036400;28;20437;-76
2022/04/29 12:21:00;;;;;;;5.50;5.00;;;;;;;17.50;45.86;97258.88;5053987;28;20559;-75
2022/04/29 12:23:32;;;;;;;6.40;5.70;;;;;;;17.69;44.96;97288.38;5036647;28;20434;-75